Terminal Aerodrome Forecast
Issued by NWS Green Bay, WI

Home | Current Version | Previous Version | Graphics & Text | Print | Product List | Glossary On
Versions: 1 2 3 4 5 6 7 8 9 10 11 12 13 14 15 16 17 18 19 20 21 22 23 24 25 26 27 28 29 30 31 32 33 34 35
000
FTUS43 KGRB 181500 AAA
TAFGRB
TAF AMD
KGRB 181511Z 1815/1912 36016G22KT P6SM SCT027 BKN060
      TEMPO 1815/1817 BKN027
     FM181800 35012G19KT P6SM SCT050
     FM182200 36005KT P6SM SKC=

USA.gov is the U.S. government's official web portal to all federal, state and local government web resources and services.